createdAt,value
2023-02-16T00:00:13.707Z,20.95
2023-02-16T00:01:13.343Z,20.46
2023-02-16T00:02:13.387Z,20.57
2023-02-16T00:03:13.635Z,20.62
2023-02-16T00:04:13.308Z,20.52
2023-02-16T00:05:13.293Z,20.46
2023-02-16T00:06:13.287Z,20.68
2023-02-16T00:07:13.276Z,20.62
2023-02-16T00:08:13.255Z,20.52
2023-02-16T00:09:13.433Z,20.03
2023-02-16T00:10:13.231Z,20.68
2023-02-16T00:11:13.207Z,20.68
2023-02-16T00:12:13.196Z,20.52
2023-02-16T00:13:13.202Z,20.52
2023-02-16T00:14:13.178Z,20.57
2023-02-16T00:15:13.157Z,20.52
2023-02-16T00:16:13.200Z,20.57
2023-02-16T00:17:13.140Z,20.52
2023-02-16T00:18:13.137Z,20.57
2023-02-16T00:19:13.143Z,20.52
2023-02-16T00:20:13.094Z,20.57
2023-02-16T00:21:13.091Z,20.57
2023-02-16T00:22:13.079Z,20.09
2023-02-16T00:23:13.050Z,20.62
2023-02-16T00:24:13.041Z,20.52
2023-02-16T00:25:13.036Z,20.62
2023-02-16T00:26:13.020Z,20.46
2023-02-16T00:27:13.016Z,20.52
2023-02-16T00:28:12.990Z,20.68
2023-02-16T00:29:12.986Z,20.73
2023-02-16T00:30:13.049Z,20.57
2023-02-16T00:31:13.015Z,20.57
2023-02-16T00:32:13.236Z,20.57
2023-02-16T00:33:12.958Z,20.52
2023-02-16T00:34:12.945Z,20.46
2023-02-16T00:35:12.954Z,20.62
2023-02-16T00:36:12.912Z,20.62
2023-02-16T00:37:12.873Z,20.62
2023-02-16T00:38:12.863Z,20.79
2023-02-16T00:39:12.851Z,20.20
2023-02-16T00:40:12.882Z,20.52
2023-02-16T00:41:12.822Z,20.57
2023-02-16T00:42:13.062Z,20.52
2023-02-16T00:43:12.802Z,20.95
2023-02-16T00:44:12.794Z,20.62
2023-02-16T00:45:12.770Z,20.09
2023-02-16T00:46:12.824Z,20.52
2023-02-16T00:47:12.746Z,20.52
2023-02-16T00:48:12.732Z,20.62
2023-02-16T00:49:12.718Z,20.62
2023-02-16T00:50:12.701Z,20.57
2023-02-16T00:51:25.188Z,21.00
2023-02-16T00:52:13.699Z,20.52
2023-02-16T00:53:12.661Z,20.68
2023-02-16T00:54:12.653Z,20.57
2023-02-16T00:55:12.644Z,20.52
2023-02-16T00:56:12.630Z,20.52
2023-02-16T00:57:12.616Z,20.52
2023-02-16T00:58:12.610Z,20.52
2023-02-16T00:59:12.590Z,20.57
2023-02-16T01:00:12.587Z,20.52
2023-02-16T01:01:12.610Z,20.62
2023-02-16T01:02:12.552Z,20.57
2023-02-16T01:03:12.535Z,20.52
2023-02-16T01:04:12.547Z,20.41
2023-02-16T01:05:12.501Z,20.62
2023-02-16T01:06:12.505Z,20.41
2023-02-16T01:07:12.502Z,20.36
2023-02-16T01:08:12.457Z,20.57
2023-02-16T01:09:12.458Z,20.52
2023-02-16T01:10:12.447Z,20.52
2023-02-16T01:11:12.421Z,20.68
2023-02-16T01:12:12.422Z,20.52
2023-02-16T01:13:12.407Z,20.52
2023-02-16T01:14:12.388Z,20.57
2023-02-16T01:15:12.373Z,20.62
2023-02-16T01:16:12.502Z,20.36
2023-02-16T01:17:12.348Z,20.62
2023-02-16T01:18:12.333Z,20.46
2023-02-16T01:19:12.332Z,20.57
2023-02-16T01:20:12.316Z,20.57
2023-02-16T01:21:12.286Z,20.57
2023-02-16T01:22:12.282Z,20.52
2023-02-16T01:23:12.288Z,20.68
2023-02-16T01:24:12.254Z,20.57
2023-02-16T01:25:12.245Z,20.73
2023-02-16T01:26:12.223Z,20.62
2023-02-16T01:27:12.210Z,20.46
2023-02-16T01:28:12.203Z,20.41
2023-02-16T01:29:12.186Z,20.57
2023-02-16T01:30:12.203Z,20.52
2023-02-16T01:31:12.319Z,20.52
2023-02-16T01:32:12.294Z,20.57
2023-02-16T01:33:12.139Z,20.79
2023-02-16T01:34:12.146Z,20.62
2023-02-16T01:35:12.112Z,20.62
2023-02-16T01:36:12.092Z,20.57
2023-02-16T01:37:12.077Z,20.62
2023-02-16T01:38:12.072Z,20.46
2023-02-16T01:39:12.082Z,20.73
2023-02-16T01:40:12.049Z,20.57
2023-02-16T01:41:12.054Z,20.57
2023-02-16T01:42:12.013Z,20.30
2023-02-16T01:43:12.018Z,20.52
2023-02-16T01:44:11.983Z,20.95
2023-02-16T01:45:11.972Z,20.68
2023-02-16T01:46:12.012Z,20.84
2023-02-16T01:47:11.953Z,20.52
2023-02-16T01:48:11.954Z,20.73
2023-02-16T01:49:12.076Z,20.52
2023-02-16T01:50:11.917Z,20.52
2023-02-16T01:51:11.902Z,20.52
2023-02-16T01:52:11.889Z,20.52
2023-02-16T01:53:11.875Z,20.57
2023-02-16T01:54:11.858Z,20.20
2023-02-16T01:55:11.863Z,20.03
2023-02-16T01:56:11.833Z,20.68
2023-02-16T01:57:11.818Z,20.52
2023-02-16T01:58:11.806Z,20.46
2023-02-16T01:59:11.789Z,20.20
2023-02-16T02:00:11.782Z,20.41
2023-02-16T02:01:11.771Z,20.62
2023-02-16T02:02:11.801Z,20.41
2023-02-16T02:03:11.960Z,20.14
2023-02-16T02:04:11.726Z,20.46
2023-02-16T02:05:12.065Z,20.20
2023-02-16T02:06:11.693Z,20.09
2023-02-16T02:07:11.692Z,19.93
2023-02-16T02:08:11.940Z,20.52
2023-02-16T02:09:11.668Z,20.30
2023-02-16T02:10:11.649Z,20.62
2023-02-16T02:11:11.662Z,20.25
2023-02-16T02:12:11.620Z,20.73
2023-02-16T02:13:11.607Z,20.09
2023-02-16T02:14:11.591Z,20.52
2023-02-16T02:15:11.577Z,20.41
2023-02-16T02:16:11.667Z,20.09
2023-02-16T02:17:11.559Z,20.52
2023-02-16T02:18:11.542Z,20.57
2023-02-16T02:19:11.531Z,20.14
2023-02-16T02:20:11.528Z,20.57
2023-02-16T02:21:11.501Z,20.30
2023-02-16T02:22:11.486Z,20.36
2023-02-16T02:23:11.474Z,20.57
2023-02-16T02:24:11.468Z,20.25
2023-02-16T02:25:11.460Z,20.09
2023-02-16T02:26:11.454Z,20.36
2023-02-16T02:27:11.796Z,20.30
2023-02-16T02:28:11.414Z,20.14
2023-02-16T02:29:11.401Z,20.09
2023-02-16T02:30:11.414Z,20.14
2023-02-16T02:31:11.507Z,20.52
2023-02-16T02:32:11.460Z,20.25
2023-02-16T02:33:11.356Z,20.14
2023-02-16T02:34:11.339Z,20.14
2023-02-16T02:35:11.326Z,20.09
2023-02-16T02:36:11.305Z,19.77
2023-02-16T02:37:11.292Z,20.09
2023-02-16T02:38:11.280Z,20.14
2023-02-16T02:39:11.272Z,20.20
2023-02-16T02:40:11.607Z,20.14
2023-02-16T02:41:11.240Z,20.09
2023-02-16T02:42:11.232Z,20.20
2023-02-16T02:43:11.236Z,20.09
2023-02-16T02:44:11.197Z,20.20
2023-02-16T02:45:11.185Z,20.36
2023-02-16T02:46:11.234Z,20.30
2023-02-16T02:47:11.167Z,20.14
2023-02-16T02:48:11.148Z,19.55
2023-02-16T02:49:11.139Z,20.09
2023-02-16T02:50:11.125Z,20.14
2023-02-16T02:51:11.114Z,19.98
2023-02-16T02:52:11.094Z,20.20
2023-02-16T02:53:11.101Z,20.09
2023-02-16T02:54:11.080Z,20.57
2023-02-16T02:55:11.062Z,20.25
2023-02-16T02:56:11.047Z,20.14
2023-02-16T02:57:11.045Z,20.20
2023-02-16T02:58:11.013Z,20.14
2023-02-16T02:59:11.037Z,20.14
2023-02-16T03:00:11.014Z,20.14
2023-02-16T03:01:11.028Z,20.20
2023-02-16T03:02:11.002Z,20.09
2023-02-16T03:03:10.960Z,20.14
2023-02-16T03:04:10.934Z,20.52
2023-02-16T03:05:10.924Z,20.14
2023-02-16T03:06:10.905Z,20.14
2023-02-16T03:07:10.900Z,20.20
2023-02-16T03:08:10.882Z,20.14
2023-02-16T03:09:10.875Z,20.14
2023-02-16T03:10:10.862Z,20.20
2023-02-16T03:11:10.861Z,20.14
2023-02-16T03:12:10.840Z,19.93
2023-02-16T03:13:10.827Z,20.36
2023-02-16T03:14:10.808Z,19.98
2023-02-16T03:15:10.817Z,20.20
2023-02-16T03:16:10.818Z,20.14
2023-02-16T03:17:10.764Z,20.14
2023-02-16T03:18:10.754Z,20.14
2023-02-16T03:19:10.743Z,20.20
2023-02-16T03:20:10.746Z,20.14
2023-02-16T03:21:10.718Z,20.14
2023-02-16T03:22:10.699Z,20.20
2023-02-16T03:23:10.690Z,20.03
2023-02-16T03:24:10.672Z,20.09
2023-02-16T03:25:10.665Z,20.09
2023-02-16T03:26:10.665Z,20.14
2023-02-16T03:27:10.995Z,20.09
2023-02-16T03:28:10.620Z,20.09
2023-02-16T03:29:10.607Z,20.09
2023-02-16T03:30:10.672Z,20.03
2023-02-16T03:31:10.717Z,20.14
2023-02-16T03:32:10.631Z,20.09
2023-02-16T03:33:10.547Z,20.14
2023-02-16T03:34:10.542Z,20.09
2023-02-16T03:35:10.523Z,20.09
2023-02-16T03:36:10.522Z,20.41
2023-02-16T03:37:10.497Z,20.09
2023-02-16T03:38:10.490Z,20.09
2023-02-16T03:39:10.479Z,20.03
2023-02-16T03:40:10.610Z,20.20
2023-02-16T03:41:10.452Z,20.14
2023-02-16T03:42:10.439Z,20.14
2023-02-16T03:43:10.446Z,20.20
2023-02-16T03:44:10.404Z,20.03
2023-02-16T03:45:10.401Z,20.14
2023-02-16T03:46:10.445Z,20.03
2023-02-16T03:47:10.465Z,19.93
2023-02-16T03:48:10.372Z,20.14
2023-02-16T03:49:10.363Z,20.36
2023-02-16T03:50:10.341Z,20.14
2023-02-16T03:51:10.326Z,20.14
2023-02-16T03:52:10.312Z,20.03
2023-02-16T03:53:10.289Z,20.14
2023-02-16T03:54:10.277Z,20.14
2023-02-16T03:55:10.273Z,20.09
2023-02-16T03:56:10.248Z,20.09
2023-02-16T03:57:10.587Z,20.09
2023-02-16T03:58:10.222Z,20.14
2023-02-16T03:59:10.214Z,19.87
2023-02-16T04:00:10.213Z,20.03
2023-02-16T04:01:10.200Z,20.14
2023-02-16T04:02:10.668Z,20.20
2023-02-16T04:03:10.191Z,20.14
2023-02-16T04:04:10.261Z,20.20
2023-02-16T04:05:10.146Z,20.20
2023-02-16T04:06:10.205Z,20.14
2023-02-16T04:07:10.131Z,20.14
2023-02-16T04:08:10.095Z,20.09
2023-02-16T04:09:10.279Z,20.20
2023-02-16T04:10:10.071Z,20.20
2023-02-16T04:11:10.057Z,20.36
2023-02-16T04:12:10.044Z,20.14
2023-02-16T04:13:10.032Z,20.09
2023-02-16T04:14:10.016Z,20.14
2023-02-16T04:15:09.999Z,20.14
2023-02-16T04:16:10.073Z,20.14
2023-02-16T04:17:09.987Z,20.14
2023-02-16T04:18:09.964Z,20.09
2023-02-16T04:19:10.004Z,20.14
2023-02-16T04:20:09.947Z,20.46
2023-02-16T04:21:09.946Z,20.14
2023-02-16T04:22:09.921Z,20.09
2023-02-16T04:23:09.896Z,20.25
2023-02-16T04:24:09.886Z,20.09
2023-02-16T04:25:09.876Z,20.20
2023-02-16T04:26:09.869Z,20.57
2023-02-16T04:27:09.853Z,20.14
2023-02-16T04:28:10.082Z,20.14
2023-02-16T04:29:09.823Z,20.09
2023-02-16T04:30:09.856Z,20.09
2023-02-16T04:31:09.921Z,20.14
2023-02-16T04:32:09.984Z,19.77
2023-02-16T04:33:09.764Z,20.20
2023-02-16T04:34:09.749Z,20.14
2023-02-16T04:35:09.770Z,20.09
2023-02-16T04:36:09.731Z,20.14
2023-02-16T04:37:09.707Z,20.09
2023-02-16T04:38:09.695Z,20.14
2023-02-16T04:39:09.730Z,20.03
2023-02-16T04:40:09.681Z,20.20
2023-02-16T04:41:09.657Z,19.71
2023-02-16T04:42:09.653Z,20.30
2023-02-16T04:43:09.961Z,20.03
2023-02-16T04:44:09.634Z,20.14
2023-02-16T04:45:09.628Z,20.30
2023-02-16T04:46:09.663Z,20.03
2023-02-16T04:47:09.588Z,20.25
2023-02-16T04:48:09.562Z,20.25
2023-02-16T04:49:09.558Z,20.20
2023-02-16T04:50:09.542Z,20.20
2023-02-16T04:51:09.541Z,20.20
2023-02-16T04:52:09.516Z,20.36
2023-02-16T04:53:09.504Z,20.25
2023-02-16T04:54:09.493Z,20.09
2023-02-16T04:55:09.482Z,20.14
2023-02-16T04:56:09.461Z,20.30
2023-02-16T04:57:09.449Z,20.14
2023-02-16T04:58:09.430Z,20.14
2023-02-16T04:59:09.421Z,20.20
2023-02-16T05:00:09.415Z,19.98
2023-02-16T05:01:09.800Z,20.20
2023-02-16T05:02:09.406Z,20.20
2023-02-16T05:03:09.372Z,20.14
2023-02-16T05:04:09.485Z,20.20
2023-02-16T05:05:09.391Z,20.14
2023-02-16T05:06:09.333Z,20.25
2023-02-16T05:07:09.341Z,20.30
2023-02-16T05:08:09.308Z,20.30
2023-02-16T05:09:09.292Z,20.14
2023-02-16T05:10:09.274Z,20.14
2023-02-16T05:11:09.274Z,20.30
2023-02-16T05:12:09.251Z,20.14
2023-02-16T05:13:09.238Z,20.25
2023-02-16T05:14:09.231Z,20.14
2023-02-16T05:15:09.219Z,20.14
2023-02-16T05:16:09.291Z,20.14
2023-02-16T05:17:09.184Z,20.09
2023-02-16T05:18:09.175Z,20.36
2023-02-16T05:19:09.160Z,20.41
2023-02-16T05:20:09.161Z,20.14
2023-02-16T05:21:09.133Z,20.14
2023-02-16T05:22:09.128Z,20.09
2023-02-16T05:23:09.136Z,19.93
2023-02-16T05:24:09.105Z,19.77
2023-02-16T05:25:09.110Z,20.30
2023-02-16T05:26:09.066Z,19.98
2023-02-16T05:27:09.062Z,20.14
2023-02-16T05:28:09.111Z,20.14
2023-02-16T05:29:09.032Z,20.09
2023-02-16T05:30:09.066Z,20.20
2023-02-16T05:31:09.129Z,20.14
2023-02-16T05:32:09.040Z,20.14
2023-02-16T05:33:08.969Z,20.20
2023-02-16T05:34:08.952Z,20.14
2023-02-16T05:35:08.944Z,20.14
2023-02-16T05:36:08.939Z,20.46
2023-02-16T05:37:08.926Z,20.14
2023-02-16T05:38:08.920Z,20.36
2023-02-16T05:39:08.939Z,20.09
2023-02-16T05:40:08.883Z,20.03
2023-02-16T05:41:08.868Z,20.09
2023-02-16T05:42:08.858Z,20.14
2023-02-16T05:43:08.848Z,20.03
2023-02-16T05:44:08.827Z,20.03
2023-02-16T05:45:08.817Z,20.09
2023-02-16T05:46:08.821Z,20.14
2023-02-16T05:47:08.786Z,20.20
2023-02-16T05:48:08.774Z,20.14
2023-02-16T05:49:08.758Z,20.36
2023-02-16T05:50:08.950Z,20.20
2023-02-16T05:51:08.741Z,20.14
2023-02-16T05:52:08.727Z,20.20
2023-02-16T05:53:08.717Z,20.14
2023-02-16T05:54:08.706Z,20.09
2023-02-16T05:55:08.715Z,19.77
2023-02-16T05:56:08.671Z,20.20
2023-02-16T05:57:08.657Z,20.14
2023-02-16T05:58:08.661Z,20.14
2023-02-16T05:59:08.632Z,20.14
2023-02-16T06:00:08.624Z,19.98
2023-02-16T06:01:08.620Z,20.03
2023-02-16T06:02:08.598Z,20.09
2023-02-16T06:03:08.586Z,20.09
2023-02-16T06:04:08.655Z,20.25
2023-02-16T06:05:08.561Z,20.14
2023-02-16T06:06:08.550Z,20.20
2023-02-16T06:07:08.532Z,20.36
2023-02-16T06:08:08.518Z,20.41
2023-02-16T06:09:08.510Z,20.14
2023-02-16T06:10:08.490Z,20.14
2023-02-16T06:11:08.497Z,20.14
2023-02-16T06:12:08.461Z,20.14
2023-02-16T06:13:08.457Z,20.30
2023-02-16T06:14:08.541Z,20.25
2023-02-16T06:15:08.438Z,20.20
2023-02-16T06:16:08.476Z,20.20
2023-02-16T06:17:08.399Z,20.03
2023-02-16T06:18:08.383Z,20.09
2023-02-16T06:19:08.402Z,20.09
2023-02-16T06:20:08.362Z,20.09
2023-02-16T06:21:08.361Z,20.14
2023-02-16T06:22:08.332Z,20.09
2023-02-16T06:23:08.326Z,20.14
2023-02-16T06:24:08.303Z,20.14
2023-02-16T06:25:08.293Z,20.46
2023-02-16T06:26:08.279Z,19.66
2023-02-16T06:27:08.288Z,20.03
2023-02-16T06:28:08.256Z,20.09
2023-02-16T06:29:08.250Z,20.14
2023-02-16T06:30:08.378Z,20.20
2023-02-16T06:31:08.484Z,20.20
2023-02-16T06:32:08.316Z,20.36
2023-02-16T06:33:08.183Z,20.14
2023-02-16T06:34:08.177Z,20.14
2023-02-16T06:35:08.153Z,20.20
2023-02-16T06:36:08.140Z,20.14
2023-02-16T06:37:08.135Z,20.30
2023-02-16T06:38:08.118Z,20.41
2023-02-16T06:39:08.104Z,20.62
2023-02-16T06:40:08.088Z,20.14
2023-02-16T06:41:08.079Z,20.14
2023-02-16T06:42:08.064Z,20.14
2023-02-16T06:43:08.078Z,20.14
2023-02-16T06:44:08.049Z,20.09
2023-02-16T06:45:08.379Z,20.09
2023-02-16T06:46:08.033Z,20.30
2023-02-16T06:47:08.002Z,20.14
2023-02-16T06:48:07.980Z,20.20
2023-02-16T06:49:07.973Z,20.14
2023-02-16T06:50:07.955Z,20.03
2023-02-16T06:51:07.942Z,20.14
2023-02-16T06:52:07.936Z,20.25
2023-02-16T06:53:07.917Z,19.98
2023-02-16T06:54:07.898Z,20.14
2023-02-16T06:55:08.033Z,20.20
2023-02-16T06:56:07.879Z,20.41
2023-02-16T06:57:07.865Z,20.14
2023-02-16T06:58:07.850Z,20.09
2023-02-16T06:59:07.866Z,20.25
2023-02-16T07:00:07.822Z,20.20
2023-02-16T07:01:08.132Z,20.14
2023-02-16T07:02:07.792Z,19.93
2023-02-16T07:03:07.851Z,20.52
2023-02-16T07:04:07.802Z,19.82
2023-02-16T07:05:07.766Z,20.09
2023-02-16T07:06:07.741Z,20.09
2023-02-16T07:07:07.732Z,20.20
2023-02-16T07:08:07.714Z,20.14
2023-02-16T07:09:07.711Z,20.20
2023-02-16T07:10:07.688Z,20.30
2023-02-16T07:11:07.968Z,20.14
2023-02-16T07:12:07.658Z,19.98
2023-02-16T07:13:07.646Z,20.09
2023-02-16T07:14:07.732Z,20.30
2023-02-16T07:15:07.659Z,20.20
2023-02-16T07:16:07.715Z,20.14
2023-02-16T07:17:07.696Z,20.09
2023-02-16T07:18:07.589Z,20.09
2023-02-16T07:19:07.564Z,19.71
2023-02-16T07:20:07.560Z,20.09
2023-02-16T07:21:07.545Z,19.60
2023-02-16T07:22:07.536Z,20.14
2023-02-16T07:23:07.521Z,20.09
2023-02-16T07:24:07.514Z,20.14
2023-02-16T07:25:07.491Z,20.30
2023-02-16T07:26:07.477Z,20.25
2023-02-16T07:27:07.467Z,20.14
2023-02-16T07:28:07.445Z,20.20
2023-02-16T07:29:07.433Z,20.20
2023-02-16T07:30:07.502Z,20.36
2023-02-16T07:31:07.873Z,19.66
2023-02-16T07:32:07.592Z,20.14
2023-02-16T07:33:07.392Z,20.14
2023-02-16T07:34:07.372Z,20.30
2023-02-16T07:35:07.362Z,20.09
2023-02-16T07:36:07.341Z,20.14
2023-02-16T07:37:07.329Z,20.30
2023-02-16T07:38:07.316Z,20.36
2023-02-16T07:39:07.305Z,20.46
2023-02-16T07:40:07.285Z,20.14
2023-02-16T07:41:09.760Z,20.20
2023-02-16T07:42:07.262Z,20.20
2023-02-16T07:43:07.253Z,19.87
2023-02-16T07:44:07.240Z,20.30
2023-02-16T07:45:07.225Z,19.71
2023-02-16T07:46:07.284Z,20.25
2023-02-16T07:47:07.227Z,20.14
2023-02-16T07:48:07.186Z,20.14
2023-02-16T07:49:07.329Z,20.14
2023-02-16T07:50:07.201Z,20.14
2023-02-16T07:51:07.737Z,19.71
2023-02-16T07:52:07.129Z,20.20
2023-02-16T07:53:07.118Z,19.98
2023-02-16T07:54:07.113Z,20.20
2023-02-16T07:55:07.138Z,20.14
2023-02-16T07:56:07.083Z,20.14
2023-02-16T07:57:07.096Z,20.09
2023-02-16T07:58:07.047Z,20.20
2023-02-16T07:59:07.036Z,20.09
2023-02-16T08:00:07.020Z,20.14
2023-02-16T08:01:07.058Z,20.14
2023-02-16T08:02:07.037Z,20.14
2023-02-16T08:03:07.192Z,20.09
2023-02-16T08:04:06.965Z,19.93
2023-02-16T08:05:06.957Z,20.14
2023-02-16T08:06:06.939Z,19.77
2023-02-16T08:07:06.928Z,20.62
2023-02-16T08:08:06.924Z,20.25
2023-02-16T08:09:06.905Z,19.82
2023-02-16T08:10:06.896Z,20.62
2023-02-16T08:11:07.021Z,20.20
2023-02-16T08:12:07.217Z,20.20
2023-02-16T08:13:07.060Z,20.20
2023-02-16T08:14:06.845Z,19.77
2023-02-16T08:15:06.935Z,20.20
2023-02-16T08:16:07.138Z,20.14
2023-02-16T08:17:07.033Z,19.77
2023-02-16T08:18:06.786Z,20.14
2023-02-16T08:19:06.919Z,20.30
2023-02-16T08:20:06.758Z,20.14
2023-02-16T08:21:06.747Z,20.09
2023-02-16T08:22:06.738Z,20.30
2023-02-16T08:23:06.722Z,20.20
2023-02-16T08:24:06.717Z,20.25
2023-02-16T08:25:07.166Z,20.14
2023-02-16T08:26:06.811Z,19.87
2023-02-16T08:27:06.679Z,20.14
2023-02-16T08:28:06.661Z,20.03
2023-02-16T08:29:06.662Z,20.30
2023-02-16T08:30:06.651Z,20.36
2023-02-16T08:31:06.703Z,20.41
2023-02-16T08:32:06.654Z,20.14
2023-02-16T08:33:06.599Z,20.09
2023-02-16T08:34:06.578Z,20.14
2023-02-16T08:35:06.745Z,20.36
2023-02-16T08:36:06.819Z,20.20
2023-02-16T08:37:06.550Z,19.60
2023-02-16T08:38:06.532Z,20.14
2023-02-16T08:39:06.518Z,20.20
2023-02-16T08:40:06.508Z,19.93
2023-02-16T08:41:06.511Z,19.71
2023-02-16T08:42:06.478Z,20.14
2023-02-16T08:43:06.466Z,20.03
2023-02-16T08:44:06.455Z,20.14
2023-02-16T08:45:06.442Z,20.14
2023-02-16T08:46:07.069Z,20.30
2023-02-16T08:47:06.407Z,19.98
2023-02-16T08:48:06.411Z,19.60
2023-02-16T08:49:06.389Z,20.36
2023-02-16T08:50:06.375Z,19.77
2023-02-16T08:51:06.376Z,19.55
2023-02-16T08:52:06.336Z,20.14
2023-02-16T08:53:06.324Z,20.09
2023-02-16T08:54:06.331Z,19.98
2023-02-16T08:55:06.350Z,19.77
2023-02-16T08:56:06.561Z,20.36
2023-02-16T08:57:06.353Z,20.14
2023-02-16T08:58:06.258Z,20.14
2023-02-16T08:59:06.445Z,19.77
2023-02-16T09:00:06.237Z,20.14
2023-02-16T09:01:06.304Z,20.20
2023-02-16T09:02:06.322Z,20.09
2023-02-16T09:03:06.194Z,20.14
2023-02-16T09:04:06.189Z,19.77
2023-02-16T09:05:06.176Z,20.14
2023-02-16T09:06:06.554Z,19.60
2023-02-16T09:07:06.161Z,20.20
2023-02-16T09:08:06.134Z,19.77
2023-02-16T09:09:06.114Z,19.82
2023-02-16T09:10:06.111Z,20.14
2023-02-16T09:11:06.358Z,19.77
2023-02-16T09:12:06.070Z,20.14
2023-02-16T09:13:06.072Z,19.71
2023-02-16T09:14:06.064Z,20.14
2023-02-16T09:15:06.115Z,20.25
2023-02-16T09:16:06.387Z,19.87
2023-02-16T09:17:06.123Z,20.20
2023-02-16T09:18:05.992Z,19.98
2023-02-16T09:19:05.989Z,19.82
2023-02-16T09:20:05.973Z,20.20
2023-02-16T09:21:05.953Z,19.82
2023-02-16T09:22:05.936Z,19.77
2023-02-16T09:23:05.947Z,19.82
2023-02-16T09:24:05.914Z,20.14
2023-02-16T09:25:05.911Z,19.71
2023-02-16T09:26:06.170Z,20.62
2023-02-16T09:27:05.888Z,19.77
2023-02-16T09:28:05.848Z,19.71
2023-02-16T09:29:05.842Z,20.14
2023-02-16T09:30:05.902Z,19.77
2023-02-16T09:31:05.889Z,19.77
2023-02-16T09:32:05.798Z,20.14
2023-02-16T09:33:06.040Z,19.77
2023-02-16T09:34:05.784Z,19.71
2023-02-16T09:35:05.771Z,20.20
2023-02-16T09:36:06.189Z,19.82
2023-02-16T09:37:05.738Z,19.98
2023-02-16T09:38:05.724Z,19.71
2023-02-16T09:39:05.739Z,19.82
2023-02-16T09:40:05.702Z,20.09
2023-02-16T09:41:05.679Z,20.68
2023-02-16T09:42:05.669Z,19.87
2023-02-16T09:43:05.654Z,19.98
2023-02-16T09:44:05.644Z,20.30
2023-02-16T09:45:05.653Z,19.82
2023-02-16T09:46:06.036Z,19.71
2023-02-16T09:47:05.609Z,19.77
2023-02-16T09:48:05.590Z,19.66
2023-02-16T09:49:05.574Z,19.82
2023-02-16T09:50:05.565Z,20.14
2023-02-16T09:51:05.553Z,19.44
2023-02-16T09:52:05.853Z,19.93
2023-02-16T09:53:05.516Z,19.82
2023-02-16T09:54:05.503Z,19.77
2023-02-16T09:55:05.515Z,19.71
2023-02-16T09:56:05.884Z,19.77
2023-02-16T09:57:05.464Z,19.77
2023-02-16T09:58:05.449Z,19.82
2023-02-16T09:59:05.544Z,19.98
2023-02-16T10:00:05.427Z,19.82
2023-02-16T10:01:05.430Z,19.77
2023-02-16T10:02:05.432Z,19.77
2023-02-16T10:03:05.384Z,20.03
2023-02-16T10:04:05.374Z,19.71
2023-02-16T10:05:05.357Z,19.93
2023-02-16T10:06:05.789Z,19.82
2023-02-16T10:07:05.499Z,19.66
2023-02-16T10:08:05.323Z,19.77
2023-02-16T10:09:05.305Z,19.77
2023-02-16T10:10:05.292Z,19.87
2023-02-16T10:11:05.630Z,19.71
2023-02-16T10:12:05.267Z,19.77
2023-02-16T10:13:05.303Z,19.66
2023-02-16T10:14:05.240Z,19.77
2023-02-16T10:15:05.223Z,19.77
2023-02-16T10:16:05.211Z,19.60
2023-02-16T10:17:05.196Z,19.77
2023-02-16T10:18:05.180Z,19.71
2023-02-16T10:19:05.162Z,19.77
2023-02-16T10:20:05.248Z,19.82
2023-02-16T10:21:05.359Z,20.36
2023-02-16T10:22:05.129Z,19.77
2023-02-16T10:23:05.115Z,19.77
2023-02-16T10:24:05.116Z,19.71
2023-02-16T10:25:05.140Z,19.77
2023-02-16T10:26:05.080Z,19.93
2023-02-16T10:27:05.096Z,20.14
2023-02-16T10:28:05.052Z,19.71
2023-02-16T10:29:05.038Z,19.82
2023-02-16T10:30:05.078Z,20.20
2023-02-16T10:31:05.308Z,20.03
2023-02-16T10:32:05.129Z,19.87
2023-02-16T10:33:04.988Z,19.71
2023-02-16T10:34:04.973Z,19.77
2023-02-16T10:35:04.962Z,19.77
2023-02-16T10:36:04.946Z,19.77
2023-02-16T10:37:04.947Z,19.77
2023-02-16T10:38:04.917Z,19.82
2023-02-16T10:39:04.904Z,19.60
2023-02-16T10:40:04.905Z,19.77
2023-02-16T10:41:05.161Z,19.93
2023-02-16T10:42:04.873Z,19.44
2023-02-16T10:43:04.881Z,19.77
2023-02-16T10:44:04.843Z,19.87
2023-02-16T10:45:04.825Z,19.82
2023-02-16T10:46:04.861Z,19.98
2023-02-16T10:47:04.798Z,19.77
2023-02-16T10:48:04.791Z,19.66
2023-02-16T10:49:04.775Z,19.71
2023-02-16T10:50:04.760Z,19.77
2023-02-16T10:51:05.086Z,19.77
2023-02-16T10:52:04.740Z,19.82
2023-02-16T10:53:04.720Z,19.82
2023-02-16T10:54:05.063Z,19.93
2023-02-16T10:55:04.700Z,19.71
2023-02-16T10:56:04.685Z,19.98
2023-02-16T10:57:04.683Z,19.77
2023-02-16T10:58:04.661Z,19.77
2023-02-16T10:59:04.676Z,19.77
2023-02-16T11:00:04.627Z,19.77
2023-02-16T11:01:05.152Z,19.77
2023-02-16T11:02:04.603Z,19.71
2023-02-16T11:03:04.632Z,20.09
2023-02-16T11:04:04.611Z,19.77
2023-02-16T11:05:04.562Z,19.71
2023-02-16T11:06:04.889Z,19.77
2023-02-16T11:07:04.537Z,19.71
2023-02-16T11:08:04.525Z,19.77
2023-02-16T11:09:04.757Z,19.77
2023-02-16T11:10:04.503Z,19.93
2023-02-16T11:11:04.807Z,19.77
2023-02-16T11:12:04.472Z,19.71
2023-02-16T11:13:04.456Z,19.82
2023-02-16T11:14:04.441Z,20.03
2023-02-16T11:15:04.461Z,19.77
2023-02-16T11:16:04.428Z,19.82
2023-02-16T11:17:04.405Z,19.71
2023-02-16T11:18:04.388Z,19.87
2023-02-16T11:19:04.373Z,19.77
2023-02-16T11:20:04.371Z,19.82
2023-02-16T11:21:04.667Z,19.77
2023-02-16T11:22:04.336Z,19.77
2023-02-16T11:23:04.322Z,19.77
2023-02-16T11:24:04.309Z,19.82
2023-02-16T11:25:04.290Z,19.71
2023-02-16T11:26:04.311Z,19.77
2023-02-16T11:27:04.266Z,19.77
2023-02-16T11:28:04.260Z,19.71
2023-02-16T11:29:04.244Z,19.77
2023-02-16T11:30:04.272Z,19.71
2023-02-16T11:31:04.957Z,19.87
2023-02-16T11:32:04.227Z,19.82
2023-02-16T11:33:04.229Z,19.77
2023-02-16T11:34:05.993Z,19.82
2023-02-16T11:35:04.206Z,19.71
2023-02-16T11:36:04.236Z,19.77
2023-02-16T11:37:04.193Z,19.82
2023-02-16T11:38:04.197Z,19.71
2023-02-16T11:39:04.120Z,19.77
2023-02-16T11:40:04.159Z,19.77
2023-02-16T11:41:04.434Z,19.77
2023-02-16T11:42:04.129Z,19.77
2023-02-16T11:43:04.102Z,19.55
2023-02-16T11:44:04.831Z,19.60
2023-02-16T11:45:04.093Z,20.09
2023-02-16T11:46:04.653Z,19.82
2023-02-16T11:47:04.184Z,20.14
2023-02-16T11:48:04.063Z,19.82
2023-02-16T11:49:04.052Z,19.60
2023-02-16T11:50:04.013Z,19.82
2023-02-16T11:51:04.301Z,19.71
2023-02-16T11:52:03.933Z,20.14
2023-02-16T11:53:03.913Z,19.82
2023-02-16T11:54:04.303Z,19.71
2023-02-16T11:55:03.926Z,19.93
2023-02-16T11:56:04.197Z,19.44
2023-02-16T11:57:03.862Z,20.14
2023-02-16T11:58:03.849Z,20.20
2023-02-16T11:59:04.034Z,19.71
2023-02-16T12:00:03.824Z,20.14
2023-02-16T12:01:04.208Z,20.14
2023-02-16T12:02:03.800Z,19.87
2023-02-16T12:03:03.805Z,20.20
2023-02-16T12:04:03.840Z,19.87
2023-02-16T12:05:03.797Z,20.30
2023-02-16T12:06:03.752Z,20.14
2023-02-16T12:07:03.732Z,20.14
2023-02-16T12:08:03.726Z,20.20
2023-02-16T12:09:03.701Z,19.82
2023-02-16T12:10:03.694Z,20.20
2023-02-16T12:11:04.025Z,20.20
2023-02-16T12:12:03.676Z,19.71
2023-02-16T12:13:03.659Z,20.20
2023-02-16T12:14:03.642Z,19.77
2023-02-16T12:15:03.620Z,20.25
2023-02-16T12:16:06.221Z,20.14
2023-02-16T12:17:03.616Z,20.20
2023-02-16T12:18:03.593Z,20.20
2023-02-16T12:19:03.588Z,20.20
2023-02-16T12:20:03.591Z,20.20
2023-02-16T12:21:03.551Z,20.14
2023-02-16T12:22:03.536Z,20.14
2023-02-16T12:23:03.520Z,20.14
2023-02-16T12:24:03.504Z,19.66
2023-02-16T12:25:03.491Z,20.36
2023-02-16T12:26:03.817Z,20.30
2023-02-16T12:27:03.465Z,20.09
2023-02-16T12:28:03.452Z,19.87
2023-02-16T12:29:03.478Z,20.20
2023-02-16T12:30:03.510Z,20.20
2023-02-16T12:31:03.468Z,19.87
2023-02-16T12:32:03.508Z,20.20
2023-02-16T12:33:03.396Z,19.82
2023-02-16T12:34:03.575Z,19.77
2023-02-16T12:35:03.381Z,20.20
2023-02-16T12:36:03.860Z,19.82
2023-02-16T12:37:03.332Z,19.87
2023-02-16T12:38:03.324Z,19.82
2023-02-16T12:39:03.323Z,20.36
2023-02-16T12:40:03.290Z,19.77
2023-02-16T12:41:03.293Z,20.20
2023-02-16T12:42:03.272Z,19.77
2023-02-16T12:43:03.250Z,19.77
2023-02-16T12:44:03.246Z,19.93
2023-02-16T12:45:03.241Z,19.98
2023-02-16T12:46:03.600Z,20.14
2023-02-16T12:47:03.202Z,20.20
2023-02-16T12:48:03.192Z,19.98
2023-02-16T12:49:03.181Z,19.82
2023-02-16T12:50:03.164Z,19.71
2023-02-16T12:51:03.476Z,19.87
2023-02-16T12:52:03.133Z,19.60